Time;durP1;ratioP1;P1;durP2;ratioP2;P2;SDS_P1;SDS_P2;PMS_P1;PMS_P2;Temp;Humidity;BMP_temperature;BMP_pressure;BME280_temperature;BME280_humidity;BME280_pressure;Samples;Min_cycle;Max_cycle;Signal;HPM_P1;HPM_P2
2022/03/18 00:00:42;;;;;;;;;20.50;16.50;;;;;13.06;49.65;103349.44;5082991;28;62925;-84
2022/03/18 00:03:08;;;;;;;;;17.75;16.00;;;;;13.07;49.54;103343.38;5099126;27;61763;-83
2022/03/18 00:05:35;;;;;;;;;25.00;20.25;;;;;13.04;49.61;103351.94;5116236;27;62072;-83
2022/03/18 00:08:01;;;;;;;;;21.50;18.25;;;;;13.03;49.54;103344.84;5083490;28;61692;-84
2022/03/18 00:10:27;;;;;;;;;29.25;23.00;;;;;13.03;49.67;103349.22;5097867;27;63698;-84
2022/03/18 00:12:53;;;;;;;;;29.25;20.50;;;;;13.01;49.80;103345.56;5099364;27;61910;-84
2022/03/18 00:15:23;;;;;;;;;21.25;19.00;;;;;13.01;49.90;103338.56;5099005;27;61923;-83
2022/03/18 00:17:51;;;;;;;;;26.25;21.75;;;;;12.98;50.08;103334.75;5083771;28;61918;-83
2022/03/18 00:20:26;;;;;;;;;17.50;15.50;;;;;12.97;50.16;103338.22;5082830;28;62873;-83
2022/03/18 00:22:52;;;;;;;;;25.25;20.00;;;;;12.94;49.90;103335.31;5098893;27;61840;-83
2022/03/18 00:25:18;;;;;;;;;23.00;23.00;;;;;12.91;49.49;103338.66;5083090;28;61722;-83
2022/03/18 00:27:45;;;;;;;;;21.50;21.50;;;;;12.86;49.26;103340.03;5099121;27;61778;-83
2022/03/18 00:30:12;;;;;;;;;15.25;13.00;;;;;12.86;49.35;103350.56;5098389;27;63964;-83
2022/03/18 00:32:39;;;;;;;;;19.75;14.00;;;;;12.82;49.02;103349.41;5099336;27;61881;-83
2022/03/18 00:35:06;;;;;;;;;15.25;12.25;;;;;12.81;49.35;103347.59;5083276;28;61868;-83
2022/03/18 00:37:32;;;;;;;;;14.50;13.00;;;;;12.80;49.39;103351.00;5098867;27;61737;-83
2022/03/18 00:39:58;;;;;;;;;16.25;12.25;;;;;12.80;49.28;103356.28;5098123;27;63673;-83
2022/03/18 00:42:23;;;;;;;;;12.50;11.75;;;;;12.77;49.27;103353.44;5098796;27;61783;-83
2022/03/18 00:44:48;;;;;;;;;18.50;17.25;;;;;12.76;49.75;103354.22;5083557;28;61867;-83
2022/03/18 00:52:42;;;;;;;;;21.00;17.00;;;;;12.71;49.60;103352.94;5082737;28;61865;-83
2022/03/18 00:55:08;;;;;;;;;16.50;12.00;;;;;12.67;49.65;103354.41;5098430;27;62287;-83
2022/03/18 00:57:33;;;;;;;;;13.75;12.25;;;;;12.66;49.97;103349.97;5098133;27;62204;-83
2022/03/18 00:59:59;;;;;;;;;18.75;14.00;;;;;12.65;50.11;103350.75;5097986;27;64927;-84
2022/03/18 01:02:24;;;;;;;;;15.50;13.25;;;;;12.63;50.09;103347.06;5098696;27;62089;-83
2022/03/18 01:04:50;;;;;;;;;22.75;20.75;;;;;12.62;50.18;103350.53;5098302;27;61805;-83
2022/03/18 01:07:17;;;;;;;;;25.00;17.50;;;;;12.59;50.01;103345.00;5098319;27;61847;-83
2022/03/18 01:09:42;;;;;;;;;22.25;20.00;;;;;12.58;50.14;103347.53;5081987;28;63108;-83
2022/03/18 01:12:08;;;;;;;;;24.75;23.25;;;;;12.55;50.12;103347.28;5082912;28;61838;-83
2022/03/18 01:14:34;;;;;;;;;25.00;25.00;;;;;12.53;50.19;103354.16;5098318;27;61831;-83
2022/03/18 01:16:59;;;;;;;;;20.00;20.00;;;;;12.52;50.66;103357.59;5082703;28;61711;-83
2022/03/18 01:19:25;;;;;;;;;21.25;18.00;;;;;12.50;50.45;103361.84;5081620;28;61852;-83
2022/03/18 01:21:51;;;;;;;;;21.25;19.50;;;;;12.48;50.59;103354.72;5082691;28;62225;-83
2022/03/18 01:24:16;;;;;;;;;23.75;20.00;;;;;12.47;50.76;103360.78;5098134;27;61672;-83
2022/03/18 01:26:42;;;;;;;;;27.25;21.00;;;;;12.46;50.74;103353.66;5115155;27;61698;-83
2022/03/18 01:29:08;;;;;;;;;19.50;16.25;;;;;12.46;51.13;103358.03;5081959;28;63128;-83
2022/03/18 01:31:34;;;;;;;;;18.50;16.50;;;;;12.43;50.94;103360.44;5098236;27;61853;-83
2022/03/18 01:34:00;;;;;;;;;20.50;18.00;;;;;12.42;51.13;103361.22;5080717;28;61900;-83
2022/03/18 01:36:25;;;;;;;;;21.00;19.00;;;;;12.40;51.13;103362.81;5098139;27;62147;-83
2022/03/18 01:38:51;;;;;;;;;24.75;16.50;;;;;12.39;50.97;103369.81;5081666;28;62892;-83
2022/03/18 01:41:16;;;;;;;;;19.25;17.75;;;;;12.37;50.63;103367.84;5097602;27;62096;-83
2022/03/18 01:43:46;;;;;;;;;16.25;15.75;;;;;12.36;50.94;103368.63;5082465;28;61764;-83
2022/03/18 01:46:16;;;;;;;;;18.25;16.25;;;;;12.33;50.96;103365.78;5082580;28;61896;-83
2022/03/18 01:48:42;;;;;;;;;24.25;16.00;;;;;12.33;51.02;103376.31;5081404;28;62173;-83
2022/03/18 01:51:08;;;;;;;;;21.25;18.50;;;;;12.31;50.81;103376.19;5082329;28;61709;-83
2022/03/18 01:53:35;;;;;;;;;17.00;15.75;;;;;12.29;51.17;103375.13;5097886;27;61797;-83
2022/03/18 01:56:01;;;;;;;;;25.75;20.00;;;;;12.29;51.44;103375.13;5097132;27;61821;-82
2022/03/18 01:58:27;;;;;;;;;15.75;15.00;;;;;12.26;51.32;103374.91;5097409;27;61847;-83
2022/03/18 02:00:53;;;;;;;;;22.00;15.50;;;;;12.23;51.48;103372.00;5082027;28;61915;-83
2022/03/18 02:03:20;;;;;;;;;20.75;15.00;;;;;12.22;51.72;103373.72;5081843;28;62044;-83
2022/03/18 02:05:46;;;;;;;;;18.00;13.25;;;;;12.20;51.47;103380.59;5098203;27;61812;-83
2022/03/18 02:08:15;;;;;;;;;23.00;18.25;;;;;12.18;51.39;103381.28;5097123;27;64614;-83
2022/03/18 02:10:41;;;;;;;;;21.25;16.25;;;;;12.16;51.37;103386.41;5085086;28;61851;-83
2022/03/18 02:13:07;;;;;;;;;14.75;14.75;;;;;12.14;51.80;103377.47;5085828;28;61921;-83
2022/03/18 02:15:32;;;;;;;;;19.50;16.00;;;;;12.11;51.57;103385.13;5085868;28;62580;-83
2022/03/18 02:17:58;;;;;;;;;17.25;15.50;;;;;12.08;51.91;103376.97;5099845;27;63819;-83
2022/03/18 02:20:23;;;;;;;;;21.50;17.75;;;;;12.07;51.74;103377.78;5118402;27;62075;-83
2022/03/18 02:22:49;;;;;;;;;17.50;13.75;;;;;12.04;52.04;103383.72;5101211;27;61976;-83
2022/03/18 02:25:15;;;;;;;;;16.75;14.25;;;;;12.04;51.90;103374.94;5100882;27;62196;-82
2022/03/18 02:27:53;;;;;;;;;19.00;17.25;;;;;12.02;51.93;103380.06;5099951;27;63586;-83
2022/03/18 02:30:18;;;;;;;;;25.75;19.25;;;;;11.99;51.92;103379.78;5085087;28;62054;-82
2022/03/18 02:32:44;;;;;;;;;20.00;17.25;;;;;11.96;51.83;103373.38;5083589;28;61834;-83
2022/03/18 02:35:10;;;;;;;;;20.75;16.25;;;;;11.94;52.38;103365.34;5085099;28;61784;-83
2022/03/18 02:37:35;;;;;;;;;20.50;14.00;;;;;11.92;52.16;103369.56;5084261;28;62765;-83
2022/03/18 02:40:02;;;;;;;;;28.50;19.50;;;;;11.91;52.26;103364.19;5084944;28;61815;-83
2022/03/18 02:42:27;;;;;;;;;20.25;15.75;;;;;11.89;52.36;103366.72;5085165;28;61716;-83
2022/03/18 02:44:53;;;;;;;;;19.50;16.75;;;;;11.87;52.11;103363.91;5085119;28;61909;-83
2022/03/18 02:47:20;;;;;;;;;15.25;14.00;;;;;11.87;52.32;103368.25;5083964;28;62897;-83
2022/03/18 02:49:45;;;;;;;;;21.50;18.00;;;;;11.85;52.50;103370.75;5100822;27;61779;-83
2022/03/18 02:52:11;;;;;;;;;18.00;14.00;;;;;11.84;52.42;103373.25;5084706;28;61792;-82
2022/03/18 02:54:37;;;;;;;;;23.50;19.75;;;;;11.81;52.35;103384.47;5117182;27;61773;-83
2022/03/18 02:57:02;;;;;;;;;27.00;19.25;;;;;11.80;52.57;103382.66;5082308;27;62019;-83
2022/03/18 02:59:28;;;;;;;;;22.00;19.50;;;;;11.79;52.71;103382.50;5100487;27;61838;-84
2022/03/18 03:01:55;;;;;;;;;27.75;16.75;;;;;11.76;52.66;103380.56;5100270;27;61778;-83
2022/03/18 03:04:21;;;;;;;;;23.25;15.75;;;;;11.78;52.68;103384.22;5100302;27;61980;-83
2022/03/18 03:09:50;;;;;;;;;27.25;20.50;;;;;11.71;52.96;103375.69;5061690;28;62030;-83
2022/03/18 03:12:16;;;;;;;;;32.50;24.50;;;;;11.60;53.06;103381.00;5062018;28;62603;-83
2022/03/18 03:14:41;;;;;;;;;25.75;24.00;;;;;11.61;53.15;103377.59;5061978;28;61839;-83
2022/03/18 03:17:07;;;;;;;;;23.75;22.75;;;;;11.59;53.05;103384.44;5060810;28;63123;-83
2022/03/18 03:19:32;;;;;;;;;25.25;17.25;;;;;11.61;53.27;103392.44;5061786;28;61849;-83
2022/03/18 03:21:57;;;;;;;;;26.75;22.25;;;;;11.61;53.41;103385.47;5062032;28;62209;-83
2022/03/18 03:24:23;;;;;;;;;23.75;19.75;;;;;11.60;53.28;103391.53;5078470;28;61767;-83
2022/03/18 03:26:48;;;;;;;;;28.50;21.75;;;;;11.60;52.99;103406.41;5077146;28;64049;-83
2022/03/18 03:29:14;;;;;;;;;25.25;17.75;;;;;11.58;52.86;103401.00;5061636;28;61989;-83
2022/03/18 03:31:39;;;;;;;;;21.75;18.25;;;;;11.55;53.53;103399.84;5061157;28;61845;-83
2022/03/18 03:34:04;;;;;;;;;29.75;20.25;;;;;11.53;53.12;103397.09;5061557;28;61813;-82
2022/03/18 03:36:30;;;;;;;;;25.75;16.25;;;;;11.50;53.15;103399.44;5060541;28;62464;-83
2022/03/18 03:38:55;;;;;;;;;38.00;24.50;;;;;11.50;53.30;103404.69;5061199;28;61903;-83
2022/03/18 03:41:22;;;;;;;;;26.25;20.75;;;;;11.49;53.37;103410.78;5079350;28;62219;-83
2022/03/18 03:43:48;;;;;;;;;25.50;22.50;;;;;11.46;53.25;103403.53;5084313;28;61871;-83
2022/03/18 03:46:14;;;;;;;;;23.25;23.00;;;;;11.45;53.28;103400.78;5082840;28;62104;-83
2022/03/18 03:48:39;;;;;;;;;25.75;24.00;;;;;11.41;53.21;103398.69;5083828;28;61781;-83
2022/03/18 03:51:05;;;;;;;;;22.00;22.00;;;;;11.40;53.38;103403.03;5083990;28;61859;-83
2022/03/18 03:53:31;;;;;;;;;26.75;23.75;;;;;11.41;53.21;103399.59;5100070;27;61784;-83
2022/03/18 03:55:56;;;;;;;;;23.75;19.25;;;;;11.41;53.43;103401.31;5082076;28;61722;-83
2022/03/18 03:58:22;;;;;;;;;30.75;26.25;;;;;11.40;53.33;103404.75;5099573;27;61763;-83
2022/03/18 04:00:48;;;;;;;;;37.25;23.25;;;;;11.40;53.38;103405.66;5083160;27;62183;-83
2022/03/18 04:03:18;;;;;;;;;28.75;22.75;;;;;11.40;53.12;103418.81;5099591;27;61802;-83
2022/03/18 04:05:45;;;;;;;;;28.00;23.00;;;;;11.37;53.56;103421.16;5098902;27;64173;-83
2022/03/18 04:08:15;;;;;;;;;24.50;19.75;;;;;11.36;53.05;103429.88;5083732;28;61895;-83
2022/03/18 04:10:42;;;;;;;;;25.00;19.75;;;;;11.33;53.60;103423.41;5099449;27;62040;-83
2022/03/18 04:13:08;;;;;;;;;26.75;22.75;;;;;11.32;53.52;103424.22;5098910;27;61932;-83
2022/03/18 04:15:34;;;;;;;;;23.00;20.25;;;;;11.32;53.45;103426.84;5098250;27;63143;-82
2022/03/18 04:17:59;;;;;;;;;35.50;26.25;;;;;11.33;53.31;103426.97;5083493;28;61861;-83
2022/03/18 04:20:25;;;;;;;;;29.50;23.00;;;;;11.34;53.52;103430.53;5083635;28;61964;-83
2022/03/18 04:22:51;;;;;;;;;23.50;20.25;;;;;11.34;53.32;103434.06;5083542;28;62141;-83
2022/03/18 04:25:17;;;;;;;;;26.25;20.25;;;;;11.32;53.40;103438.28;5098268;27;61758;-83
2022/03/18 04:27:43;;;;;;;;;28.75;22.25;;;;;11.30;53.28;103444.22;5097605;27;62001;-82
2022/03/18 04:30:13;;;;;;;;;26.75;19.25;;;;;11.32;53.19;103451.44;5083546;28;61792;-83
2022/03/18 04:32:39;;;;;;;;;24.25;24.25;;;;;11.31;53.28;103449.59;5083245;28;61956;-83
2022/03/18 04:35:06;;;;;;;;;20.00;19.00;;;;;11.33;53.27;103455.88;5098028;27;63588;-83
2022/03/18 04:37:32;;;;;;;;;32.75;24.25;;;;;11.30;53.21;103460.91;5098473;27;61788;-83
2022/03/18 04:39:58;;;;;;;;;23.25;18.50;;;;;11.26;53.19;103450.91;5098293;27;61949;-83
2022/03/18 04:42:23;;;;;;;;;30.25;20.00;;;;;11.29;53.22;103461.72;5098568;27;62073;-82
2022/03/18 04:44:48;;;;;;;;;26.75;21.50;;;;;11.28;52.93;103453.69;5097923;27;63560;-83
2022/03/18 04:47:14;;;;;;;;;33.75;24.75;;;;;11.29;52.91;103453.81;5115793;27;62262;-83
2022/03/18 04:49:40;;;;;;;;;27.25;21.75;;;;;11.29;52.94;103458.13;5082841;28;61851;-82
2022/03/18 04:52:06;;;;;;;;;28.75;21.50;;;;;11.26;52.81;103458.81;5098815;27;61782;-83
2022/03/18 04:54:32;;;;;;;;;21.75;10.25;;;;;11.26;52.74;103457.09;5097553;27;63704;-83
2022/03/18 04:57:16;;;;;;;;;18.75;17.75;;;;;11.27;52.67;103452.78;5079939;28;61946;-83
2022/03/18 04:59:42;;;;;;;;;19.00;19.00;;;;;11.30;52.65;103462.63;5082801;28;62114;-82
2022/03/18 05:02:12;;;;;;;;;23.50;23.25;;;;;11.26;52.61;103464.97;5083040;28;61914;-82
2022/03/18 05:04:38;;;;;;;;;18.00;18.00;;;;;11.29;52.56;103468.66;5098074;27;62113;-83
2022/03/18 05:07:07;;;;;;;;;25.75;23.25;;;;;11.25;52.46;103464.88;5082513;28;61934;-83
2022/03/18 05:09:32;;;;;;;;;27.25;23.25;;;;;11.21;52.60;103476.81;5082212;28;61851;-83
2022/03/18 05:11:58;;;;;;;;;26.50;22.00;;;;;11.23;52.48;103475.25;5098213;27;61880;-83
2022/03/18 05:14:23;;;;;;;;;18.75;16.25;;;;;11.23;51.97;103471.69;5082183;28;62741;-82
2022/03/18 05:16:49;;;;;;;;;27.50;19.50;;;;;11.22;52.53;103477.72;5097966;27;62064;-83
2022/03/18 05:19:15;;;;;;;;;26.00;15.00;;;;;11.20;52.25;103482.88;5098407;27;61858;-83
2022/03/18 05:21:41;;;;;;;;;32.50;23.00;;;;;11.22;52.13;103483.91;5098403;27;62403;-83
2022/03/18 05:24:06;;;;;;;;;31.75;23.50;;;;;11.22;52.26;103485.63;5081504;28;61754;-83
2022/03/18 05:26:33;;;;;;;;;21.00;17.25;;;;;11.21;52.42;103486.41;5080900;28;61889;-83
2022/03/18 05:28:59;;;;;;;;;28.00;20.50;;;;;11.20;51.97;103480.25;5098414;27;61856;-83
2022/03/18 05:31:26;;;;;;;;;24.25;20.00;;;;;11.20;52.04;103496.03;5082799;28;62034;-84
2022/03/18 05:33:51;;;;;;;;;26.75;18.25;;;;;11.17;52.00;103498.38;5097554;27;64744;-83
2022/03/18 05:36:17;;;;;;;;;24.50;20.00;;;;;11.17;51.83;103495.75;5097760;27;61932;-83
2022/03/18 05:38:43;;;;;;;;;24.50;18.75;;;;;11.19;51.77;103491.53;5082309;28;61728;-83
2022/03/18 05:41:09;;;;;;;;;19.75;16.00;;;;;11.20;51.70;103492.44;5081542;28;61944;-83
2022/03/18 05:43:34;;;;;;;;;16.00;14.75;;;;;11.17;51.65;103497.47;5081709;28;61986;-82
2022/03/18 05:46:00;;;;;;;;;21.25;18.25;;;;;11.18;51.43;103501.91;5085764;28;61984;-83
2022/03/18 05:48:25;;;;;;;;;24.00;21.00;;;;;11.20;51.51;103490.78;5101352;27;61912;-82
2022/03/18 05:50:51;;;;;;;;;19.00;16.50;;;;;11.19;51.60;103491.53;5101653;27;61878;-82
2022/03/18 05:53:17;;;;;;;;;19.00;18.00;;;;;11.19;51.25;103499.44;5085241;28;62699;-83
2022/03/18 05:58:27;;;;;;;;;23.50;21.00;;;;;11.21;50.99;103497.84;5085254;28;62134;-83
2022/03/18 06:00:53;;;;;;;;;14.75;14.00;;;;;11.17;51.21;103513.25;5101316;27;61756;-83
2022/03/18 06:03:19;;;;;;;;;16.75;16.75;;;;;11.20;50.89;103500.34;5100536;27;63362;-83
2022/03/18 06:05:45;;;;;;;;;21.50;17.50;;;;;11.18;50.90;103508.13;5100959;27;61933;-82
2022/03/18 06:13:38;;;;;;;;;20.25;18.50;;;;;11.22;50.61;103499.69;5085146;28;61683;-85
2022/03/18 06:16:04;;;;;;;;;25.00;18.25;;;;;11.24;50.78;103502.44;5102396;27;61957;-81
2022/03/18 06:18:30;;;;;;;;;21.50;18.50;;;;;11.23;50.52;103509.41;5104294;27;61884;-84
2022/03/18 06:20:56;;;;;;;;;26.50;20.75;;;;;11.24;50.99;103516.50;5121319;27;62095;-81
2022/03/18 06:23:21;;;;;;;;;27.25;17.25;;;;;11.26;50.80;103514.94;5117488;27;63531;-84
2022/03/18 06:25:47;;;;;;;;;28.50;21.75;;;;;11.26;50.64;103517.56;5099500;27;62079;-84
2022/03/18 06:28:13;;;;;;;;;22.50;18.75;;;;;11.29;50.46;103518.59;5084048;27;61815;-84
2022/03/18 06:30:38;;;;;;;;;27.00;20.25;;;;;11.30;50.52;103515.22;5085165;28;62129;-83
2022/03/18 06:33:04;;;;;;;;;23.75;21.75;;;;;11.30;50.35;103508.22;5083888;28;63507;-86
2022/03/18 06:35:30;;;;;;;;;21.75;18.50;;;;;11.31;50.08;103511.78;5122500;27;61793;-84
2022/03/18 06:37:55;;;;;;;;;19.00;16.25;;;;;11.36;50.39;103497.31;5104717;27;61701;-83
2022/03/18 06:40:21;;;;;;;;;25.50;20.25;;;;;11.38;49.79;103512.44;5102546;27;62075;-80
2022/03/18 06:42:46;;;;;;;;;24.50;22.00;;;;;11.39;50.29;103497.56;5102703;27;61845;-80
2022/03/18 06:45:15;;;;;;;;;19.50;17.75;;;;;11.42;50.14;103493.50;5104197;27;61834;-82
2022/03/18 06:47:41;;;;;;;;;28.25;22.25;;;;;11.43;49.93;103499.66;5105020;27;61902;-77
2022/03/18 06:50:09;;;;;;;;;28.50;22.50;;;;;11.45;49.62;103506.00;5105317;27;61961;-77
2022/03/18 06:52:34;;;;;;;;;24.75;20.75;;;;;11.50;50.06;103511.63;5103540;27;61889;-76
2022/03/18 06:54:59;;;;;;;;;25.00;19.25;;;;;11.52;50.04;103516.22;5102623;27;62396;-76
2022/03/18 06:57:25;;;;;;;;;32.25;23.75;;;;;11.54;49.68;103508.47;5100290;27;62320;-77
2022/03/18 06:59:50;;;;;;;;;22.75;17.25;;;;;11.55;50.19;103516.50;5103875;27;62215;-78
2022/03/18 07:02:16;;;;;;;;;22.50;19.00;;;;;11.60;49.75;103519.50;5110967;27;61960;-77
2022/03/18 07:04:41;;;;;;;;;23.75;18.75;;;;;11.58;49.55;103507.94;5103783;27;62044;-76
2022/03/18 07:07:07;;;;;;;;;22.50;18.00;;;;;11.64;50.00;103513.72;5104802;27;62032;-76
2022/03/18 07:09:32;;;;;;;;;28.00;19.75;;;;;11.74;50.32;103513.72;5104174;27;62034;-77
2022/03/18 07:11:58;;;;;;;;;25.00;19.00;;;;;11.92;50.06;103514.34;5103078;27;62100;-77
2022/03/18 07:14:23;;;;;;;;;21.50;17.25;;;;;12.02;49.21;103514.31;5105069;27;62080;-78
2022/03/18 07:19:33;;;;;;;;;21.50;20.00;;;;;12.80;48.32;103511.78;5104765;27;61888;-83
2022/03/18 07:21:58;;;;;;;;;27.00;20.00;;;;;13.48;46.93;103504.81;5103452;27;61953;-83
2022/03/18 07:24:24;;;;;;;;;30.50;21.50;;;;;14.09;46.09;103507.56;5104215;27;62054;-83
2022/03/18 07:26:49;;;;;;;;;23.25;21.00;;;;;14.34;43.86;103502.38;5102626;27;61937;-84
2022/03/18 07:29:15;;;;;;;;;20.00;17.25;;;;;14.50;44.05;103505.31;5103433;27;62200;-84
2022/03/18 07:31:40;;;;;;;;;22.75;18.50;;;;;14.72;43.68;103499.88;5102995;27;62766;-84
2022/03/18 07:34:06;;;;;;;;;18.50;17.50;;;;;15.00;43.51;103509.75;5101688;27;62015;-84
2022/03/18 07:36:32;;;;;;;;;27.50;19.75;;;;;15.33;42.50;103497.94;5102158;27;61809;-86
2022/03/18 07:38:57;;;;;;;;;23.75;17.75;;;;;15.50;42.68;103495.53;5103785;27;61792;-77
2022/03/18 07:41:23;;;;;;;;;29.00;18.75;;;;;15.51;41.31;103490.34;5102852;27;63163;-77
2022/03/18 07:43:49;;;;;;;;;24.00;22.50;;;;;15.55;42.24;103504.69;5102905;27;62385;-82
2022/03/18 07:46:14;;;;;;;;;23.75;18.00;;;;;15.51;42.30;103505.28;5102483;27;61975;-80
2022/03/18 07:48:43;;;;;;;;;20.25;18.75;;;;;15.67;42.31;103499.31;5103270;27;61869;-81
2022/03/18 07:51:08;;;;;;;;;28.00;21.50;;;;;15.70;41.30;103510.09;5100887;27;64289;-82
2022/03/18 07:53:34;;;;;;;;;24.25;20.25;;;;;15.70;41.81;103518.97;5118521;27;62140;-82
2022/03/18 07:55:59;;;;;;;;;29.50;28.00;;;;;15.54;41.96;103517.00;5097984;27;62330;-81
2022/03/18 07:58:25;;;;;;;;;29.25;24.25;;;;;15.47;41.90;103514.75;5098752;27;62044;-81
2022/03/18 08:00:50;;;;;;;;;23.50;21.00;;;;;15.43;42.47;103510.06;5100543;27;62787;-83
2022/03/18 08:03:16;;;;;;;;;26.25;20.75;;;;;15.37;42.58;103519.31;5102596;27;61880;-82
2022/03/18 08:05:42;;;;;;;;;18.50;18.50;;;;;15.35;42.67;103513.91;5103288;27;61816;-81
2022/03/18 08:08:08;;;;;;;;;33.25;24.00;;;;;15.41;42.17;103519.63;5101122;27;62000;-81
2022/03/18 08:10:34;;;;;;;;;25.25;24.25;;;;;15.37;42.48;103514.03;5100936;27;63491;-82
2022/03/18 08:13:00;;;;;;;;;22.75;18.50;;;;;15.36;42.68;103517.47;5109258;27;62050;-82
2022/03/18 08:15:28;;;;;;;;;22.50;19.50;;;;;15.19;42.74;103525.19;5102248;27;62033;-82
2022/03/18 08:17:53;;;;;;;;;28.25;18.00;;;;;15.10;42.62;103530.75;5101975;27;61910;-84
2022/03/18 08:20:20;;;;;;;;;18.75;15.00;;;;;15.12;43.24;103526.50;5101315;27;62372;-82
2022/03/18 08:22:47;;;;;;;;;20.00;17.75;;;;;15.08;43.41;103531.44;5102841;27;61880;-82
2022/03/18 08:25:12;;;;;;;;;34.00;26.75;;;;;15.06;42.81;103539.28;5116790;27;61882;-82
2022/03/18 08:27:38;;;;;;;;;22.75;18.25;;;;;15.12;43.13;103534.44;5102697;27;62035;-82
2022/03/18 08:30:06;;;;;;;;;19.75;17.50;;;;;15.12;43.42;103537.06;5102950;27;61937;-81
2022/03/18 08:32:33;;;;;;;;;25.75;21.25;;;;;15.09;42.76;103536.84;5102326;27;62220;-82
2022/03/18 08:34:59;;;;;;;;;22.00;15.75;;;;;15.05;42.78;103536.53;5101634;27;61862;-83
2022/03/18 08:40:12;;;;;;;;;26.50;21.75;;;;;15.10;42.71;103544.00;5099511;27;62467;-82
2022/03/18 08:42:38;;;;;;;;;20.25;20.25;;;;;15.03;41.84;103536.41;5102984;27;62023;-83
2022/03/18 08:45:04;;;;;;;;;17.50;17.00;;;;;15.07;43.32;103535.81;5103103;27;61997;-83
2022/03/18 08:47:30;;;;;;;;;20.50;13.00;;;;;15.08;43.10;103537.66;5094850;27;61952;-82
2022/03/18 08:49:56;;;;;;;;;23.75;18.50;;;;;15.17;41.93;103528.50;5107562;27;63183;-82
2022/03/18 08:52:21;;;;;;;;;29.75;17.00;;;;;15.24;42.80;103530.78;5099864;27;62044;-81
2022/03/18 08:54:47;;;;;;;;;26.50;17.25;;;;;15.27;41.28;103513.38;5101095;27;61812;-81
2022/03/18 08:57:13;;;;;;;;;23.00;14.50;;;;;15.33;41.91;103534.06;5100450;27;61959;-82
2022/03/18 08:59:44;;;;;;;;;21.00;19.25;;;;;15.38;41.43;103530.03;5099153;27;63264;-81
2022/03/18 09:02:10;;;;;;;;;18.25;15.00;;;;;15.38;42.23;103529.09;5072356;28;61918;-81
2022/03/18 09:04:35;;;;;;;;;16.50;15.50;;;;;15.46;41.15;103536.75;5089006;27;61762;-81
2022/03/18 09:07:01;;;;;;;;;17.75;15.75;;;;;15.46;40.84;103531.44;5073563;27;61891;-82
2022/03/18 09:09:27;;;;;;;;;17.00;15.00;;;;;15.52;41.54;103530.97;5089633;27;61935;-81
2022/03/18 09:11:54;;;;;;;;;13.25;13.25;;;;;15.47;39.48;103530.66;5074686;27;61737;-82
2022/03/18 09:14:20;;;;;;;;;23.75;15.50;;;;;15.56;39.82;103529.44;5067143;28;62450;-82
2022/03/18 09:16:47;;;;;;;;;19.50;16.50;;;;;15.63;39.47;103526.41;5082431;28;62161;-82
2022/03/18 09:19:13;;;;;;;;;18.25;14.75;;;;;15.58;38.65;103531.38;5065863;28;64633;-82
2022/03/18 09:21:39;;;;;;;;;14.00;12.00;;;;;15.67;40.23;103524.06;5067634;28;62065;-82
2022/03/18 09:24:05;;;;;;;;;15.50;12.25;;;;;15.76;40.10;103537.03;5086111;28;61738;-83
2022/03/18 09:26:31;;;;;;;;;15.00;10.25;;;;;15.81;39.91;103538.28;5076085;27;62069;-82
2022/03/18 09:28:56;;;;;;;;;16.75;12.00;;;;;15.82;39.51;103526.84;5106046;27;62971;-83
2022/03/18 09:31:22;;;;;;;;;15.75;14.25;;;;;15.82;38.00;103524.19;5088048;27;61764;-83
2022/03/18 09:33:48;;;;;;;;;14.75;10.50;;;;;15.83;37.54;103530.41;5106222;27;61724;-83
2022/03/18 09:36:18;;;;;;;;;13.50;11.00;;;;;15.90;38.69;103535.31;5088126;27;62048;-82
2022/03/18 09:38:45;;;;;;;;;14.25;11.75;;;;;15.92;37.22;103529.31;5104475;27;63763;-82
2022/03/18 09:41:11;;;;;;;;;15.00;10.00;;;;;15.96;38.21;103530.44;5106112;27;61680;-83
2022/03/18 09:43:38;;;;;;;;;14.00;10.00;;;;;16.04;38.59;103530.94;5106370;27;61739;-83
2022/03/18 09:46:06;;;;;;;;;12.50;12.00;;;;;16.11;38.34;103523.50;5106420;27;62177;-83
2022/03/18 09:48:32;;;;;;;;;17.25;11.75;;;;;16.18;38.27;103532.75;5060291;28;63665;-83
2022/03/18 09:50:58;;;;;;;;;14.50;13.50;;;;;16.23;37.52;103527.75;5085820;28;61952;-83
2022/03/18 09:53:24;;;;;;;;;15.50;10.00;;;;;16.25;37.44;103521.72;5067401;28;61968;-82
2022/03/18 09:55:51;;;;;;;;;9.50;7.50;;;;;16.33;38.66;103522.25;5085473;28;62156;-82
2022/03/18 09:58:18;;;;;;;;;11.00;10.25;;;;;16.33;37.71;103515.19;5084548;28;61809;-83
2022/03/18 10:00:43;;;;;;;;;16.50;10.50;;;;;16.39;37.16;103522.66;5102185;27;61783;-83
2022/03/18 10:03:11;;;;;;;;;10.25;8.75;;;;;16.48;37.27;103530.28;5105834;27;62088;-83
2022/03/18 10:05:49;;;;;;;;;14.00;8.25;;;;;16.52;34.95;103522.59;5121849;27;62122;-83
2022/03/18 10:08:15;;;;;;;;;7.00;7.00;;;;;16.45;32.80;103515.09;5105323;27;61962;-83
2022/03/18 10:10:48;;;;;;;;;9.25;8.50;;;;;16.59;34.45;103517.69;5105427;27;62088;-82
2022/03/18 10:13:15;;;;;;;;;10.00;7.00;;;;;16.70;34.69;103524.59;5105984;27;61795;-83
2022/03/18 10:15:41;;;;;;;;;8.75;8.75;;;;;16.83;35.48;103519.25;5098141;27;62114;-81
2022/03/18 10:18:11;;;;;;;;;8.25;5.00;;;;;16.71;31.83;103515.81;5083920;27;63054;-82
2022/03/18 10:20:39;;;;;;;;;8.75;8.00;;;;;16.81;33.05;103520.00;5066559;28;61869;-82
2022/03/18 10:23:16;;;;;;;;;7.75;7.25;;;;;16.91;33.12;103525.06;5085295;28;61936;-82
2022/03/18 10:25:53;;;;;;;;;9.25;6.00;;;;;16.99;32.43;103513.19;5085099;28;61977;-81
2022/03/18 10:28:37;;;;;;;;;2.75;2.75;;;;;17.02;32.46;103512.47;5065957;28;63655;-83
2022/03/18 10:31:10;;;;;;;;;6.50;6.25;;;;;17.12;32.70;103502.50;5065547;28;62125;-82
2022/03/18 10:39:28;;;;;;;;;7.00;7.00;;;;;17.36;33.35;103492.44;5083949;28;62122;-82
2022/03/18 10:41:54;;;;;;;;;8.50;6.75;;;;;17.41;32.87;103498.03;5084532;28;62202;-83
2022/03/18 10:44:20;;;;;;;;;14.25;7.50;;;;;17.51;33.73;103495.09;5066598;28;61784;-83
2022/03/18 10:46:47;;;;;;;;;9.50;6.00;;;;;17.53;30.87;103489.91;5083166;27;62183;-83
2022/03/18 10:49:13;;;;;;;;;8.75;5.75;;;;;17.65;32.15;103490.63;5051701;28;63109;-83
2022/03/18 10:51:39;;;;;;;;;5.75;5.00;;;;;17.65;30.07;103487.97;5064342;28;61844;-82
2022/03/18 10:54:05;;;;;;;;;9.00;8.00;;;;;17.75;29.92;103489.41;5063122;28;61917;-82
2022/03/18 10:56:52;;;;;;;;;5.50;5.25;;;;;17.87;30.28;103483.94;5081827;27;61724;-82
2022/03/18 10:59:17;;;;;;;;;6.00;6.00;;;;;17.92;27.07;103485.09;5070253;27;63526;-81
2022/03/18 11:01:46;;;;;;;;;5.00;5.00;;;;;17.99;28.55;103489.94;5103298;27;61732;-82
2022/03/18 11:04:15;;;;;;;;;10.75;7.25;;;;;18.11;27.04;103482.66;5104429;27;61759;-82
2022/03/18 11:06:43;;;;;;;;;10.75;9.25;;;;;18.12;26.78;103479.19;5105223;27;61682;-82
2022/03/18 11:09:12;;;;;;;;;8.00;4.50;;;;;18.31;29.11;103482.88;5104420;27;62132;-82
2022/03/18 11:11:41;;;;;;;;;7.50;4.50;;;;;18.54;28.44;103487.72;5102530;27;61955;-82
2022/03/18 11:14:10;;;;;;;;;6.50;6.50;;;;;18.68;28.04;103479.56;5104641;27;61790;-82
2022/03/18 11:16:40;;;;;;;;;8.50;7.75;;;;;18.82;26.11;103472.38;5104873;27;61831;-81
2022/03/18 11:19:09;;;;;;;;;8.75;8.75;;;;;19.03;27.83;103475.28;5103009;27;61799;-83
2022/03/18 11:21:36;;;;;;;;;5.00;5.00;;;;;19.18;28.20;103476.09;5103973;27;61862;-81
2022/03/18 11:24:11;;;;;;;;;6.25;4.75;;;;;19.36;29.65;103473.44;5104607;27;61871;-82
2022/03/18 11:26:38;;;;;;;;;4.50;4.50;;;;;19.44;28.54;103458.78;5104147;27;61940;-82
2022/03/18 11:29:19;;;;;;;;;4.00;4.00;;;;;19.52;26.52;103460.09;5102356;27;64107;-82
2022/03/18 11:32:10;;;;;;;;;3.50;3.25;;;;;19.77;28.81;103469.31;5120491;27;61878;-82
2022/03/18 11:34:58;;;;;;;;;5.00;3.00;;;;;19.91;26.15;103464.69;5102843;27;61741;-83
2022/03/18 11:37:29;;;;;;;;;7.25;7.00;;;;;19.96;26.41;103455.16;5101680;27;62017;-82